MDT,Max TemperatureF,Mean TemperatureF,Min TemperatureF,Max Dew PointF,MeanDew PointF,Min DewpointF,Max Humidity, Mean Humidity, Min Humidity, Max Sea Level PressureIn, Mean Sea Level PressureIn, Min Sea Level PressureIn, Max VisibilityMiles, Mean VisibilityMiles, Min VisibilityMiles, Max Wind SpeedMPH, Mean Wind SpeedMPH, Max Gust SpeedMPH,PrecipitationIn, CloudCover, Events, WindDirDegrees
2012-10-1,73,59,45,33,31,27,62,41,19,30.29,30.14,29.94,10,10,10,9,6,21,0.00,0,,48
2012-10-2,82,66,50,30,20,9,38,22,6,30.02,29.80,29.67,10,10,10,18,9,28,0.00,0,,246
2012-10-3,63,49,35,29,21,12,56,36,16,30.36,29.98,29.67,10,10,10,35,18,52,0.00,3,,8
2012-10-4,49,39,29,26,20,17,70,50,29,30.38,30.29,30.17,10,10,10,13,7,,0.00,4,,84
2012-10-5,43,36,28,28,25,22,92,68,43,30.33,30.26,30.22,10,9,2,22,9,30,0.03,8,Snow,47
2012-10-6,40,32,23,27,23,16,100,72,44,30.45,30.33,30.21,10,7,0,14,5,21,0.04,5,Fog-Snow,63
2012-10-7,54,38,22,23,17,15,74,48,22,30.28,30.15,29.99,10,10,10,12,5,14,0.00,0,,262
2012-10-8,62,45,27,28,19,14,69,43,17,30.00,29.90,29.77,10,10,10,12,6,17,0.00,0,,45
2012-10-9,50,41,31,32,28,21,82,62,42,30.17,30.08,29.91,10,10,10,8,5,15,0.00,5,,57
2012-10-10,62,45,27,26,24,20,84,55,25,30.16,30.02,29.89,10,10,10,9,5,14,0.00,0,,348
2012-10-11,60,49,37,32,29,23,70,52,33,30.09,30.02,29.89,10,10,10,17,10,23,0.00,0,,44
2012-10-12,65,49,32,40,32,28,82,58,34,30.04,29.90,29.76,10,10,10,20,7,25,T,1,,273
2012-10-13,66,54,42,38,32,24,76,50,23,30.21,29.92,29.74,10,10,10,14,6,17,0.00,2,,333
2012-10-14,67,54,41,29,26,21,53,37,20,30.19,30.09,29.99,10,10,10,16,10,32,0.00,0,,274
2012-10-15,69,57,45,32,28,25,50,36,22,30.03,29.89,29.79,10,10,10,20,9,33,0.00,1,,251
2012-10-16,69,55,41,45,33,19,80,54,27,29.83,29.61,29.38,10,9,2,32,14,47,0.09,1,Rain,271
2012-10-17,51,42,33,21,12,6,45,31,16,30.12,29.92,29.67,10,10,10,36,25,48,0.00,0,,313
2012-10-18,51,37,22,16,13,10,50,36,22,30.29,30.20,30.14,10,10,10,9,4,,0.00,0,,64
2012-10-19,62,45,28,28,22,16,63,43,22,30.12,29.95,29.80,10,10,10,15,6,,0.00,1,,279
2012-10-20,71,54,37,28,26,23,59,38,17,29.78,29.64,29.50,10,10,10,18,8,30,0.00,0,,266
2012-10-21,59,49,39,37,33,29,76,58,40,29.79,29.72,29.61,10,10,10,18,8,,T,4,,23
2012-10-22,59,50,41,46,41,33,96,78,60,29.82,29.67,29.52,10,10,7,15,5,,0.09,6,Rain,5
2012-10-23,47,41,35,41,29,19,89,62,34,29.90,29.75,29.55,10,10,9,22,10,36,0.06,6,Rain,269
2012-10-24,38,30,21,25,22,17,96,72,47,30.16,29.99,29.89,10,10,10,12,6,,T,6,,234
2012-10-25,37,28,19,25,22,17,92,76,59,30.43,30.22,30.10,10,8,1,16,6,23,0.03,6,Snow,45
2012-10-26,39,30,21,23,20,16,92,68,44,30.50,30.35,30.17,10,7,0,9,4,,T,6,Fog-Snow,180
2012-10-27,49,36,22,21,19,15,74,53,31,30.18,30.10,30.03,10,10,10,12,6,15,0.00,1,,258
2012-10-28,60,45,29,32,26,21,69,51,32,30.06,30.00,29.91,10,10,10,28,10,32,0.00,1,,241
2012-10-29,66,52,38,35,31,26,70,49,28,30.06,30.00,29.94,10,10,10,20,9,30,0.00,1,,268
2012-10-30,62,51,39,29,26,23,55,39,23,30.12,30.06,30.01,10,10,10,14,9,,0.00,0,,247
2012-10-31,65,51,37,29,26,22,59,39,19,30.15,30.07,30.00,10,10,10,12,5,,0.00,0,,267